createdAt,value
2022-09-27T00:00:32.479Z,1.92
2022-09-27T00:02:58.979Z,2.00
2022-09-27T00:05:25.555Z,2.03
2022-09-27T00:07:51.829Z,1.80
2022-09-27T00:10:18.176Z,1.90
2022-09-27T00:12:44.406Z,1.63
2022-09-27T00:15:10.724Z,2.20
2022-09-27T00:17:37.749Z,2.03
2022-09-27T00:20:05.183Z,2.35
2022-09-27T00:22:32.108Z,2.30
2022-09-27T00:24:58.764Z,1.80
2022-09-27T00:27:25.515Z,2.03
2022-09-27T00:29:52.408Z,2.30
2022-09-27T00:32:18.600Z,2.40
2022-09-27T00:34:45.189Z,2.35
2022-09-27T00:37:11.452Z,2.60
2022-09-27T00:39:39.027Z,2.13
2022-09-27T00:42:06.115Z,2.58
2022-09-27T00:44:38.539Z,3.30
2022-09-27T00:47:11.236Z,3.00
2022-09-27T00:49:42.469Z,3.28
2022-09-27T00:52:10.020Z,3.35
2022-09-27T00:54:38.604Z,3.35
2022-09-27T00:57:05.294Z,3.20
2022-09-27T00:59:39.652Z,2.90
2022-09-27T01:02:07.201Z,3.05
2022-09-27T01:04:34.482Z,3.20
2022-09-27T01:07:00.891Z,3.00
2022-09-27T01:09:27.258Z,2.90
2022-09-27T01:12:01.221Z,2.40
2022-09-27T01:14:27.404Z,2.38
2022-09-27T01:17:26.606Z,2.28
2022-09-27T01:20:07.219Z,1.95
2022-09-27T01:22:37.886Z,2.15
2022-09-27T01:25:04.059Z,1.73
2022-09-27T01:27:47.919Z,2.00
2022-09-27T01:30:18.995Z,1.90
2022-09-27T01:32:59.022Z,1.90
2022-09-27T01:35:31.960Z,1.80
2022-09-27T01:37:58.180Z,1.90
2022-09-27T01:40:24.690Z,1.88
2022-09-27T01:42:57.428Z,2.50
2022-09-27T01:45:28.082Z,2.22
2022-09-27T01:47:59.046Z,2.40
2022-09-27T01:50:35.014Z,2.45
2022-09-27T01:53:21.491Z,2.55
2022-09-27T01:55:49.208Z,2.38
2022-09-27T01:58:19.248Z,3.05
2022-09-27T02:00:47.215Z,2.95
2022-09-27T02:03:15.573Z,3.25
2022-09-27T02:05:44.758Z,3.10
2022-09-27T02:08:31.834Z,2.83
2022-09-27T02:11:00.735Z,3.30
2022-09-27T02:13:32.923Z,3.08
2022-09-27T02:16:17.856Z,2.90
2022-09-27T02:19:10.296Z,3.35
2022-09-27T02:21:49.676Z,3.10
2022-09-27T02:24:21.018Z,3.20
2022-09-27T02:26:51.313Z,2.95
2022-09-27T02:29:31.625Z,2.83
2022-09-27T02:31:58.101Z,2.67
2022-09-27T02:34:27.458Z,3.25
2022-09-27T02:36:53.809Z,2.95
2022-09-27T02:39:20.510Z,2.75
2022-09-27T02:41:47.118Z,2.58
2022-09-27T02:44:14.352Z,2.83
2022-09-27T02:47:00.841Z,2.50
2022-09-27T02:49:46.029Z,2.58
2022-09-27T02:52:15.218Z,2.60
2022-09-27T02:54:55.678Z,2.22
2022-09-27T02:57:30.758Z,2.63
2022-09-27T02:59:56.896Z,2.38
2022-09-27T03:02:31.216Z,2.50
2022-09-27T03:04:59.702Z,2.50
2022-09-27T03:07:26.542Z,2.53
2022-09-27T03:09:53.705Z,2.67
2022-09-27T03:12:25.745Z,2.70
2022-09-27T03:14:59.102Z,2.30
2022-09-27T03:17:25.366Z,2.38
2022-09-27T03:19:51.891Z,2.60
2022-09-27T03:22:18.262Z,2.67
2022-09-27T03:24:44.891Z,2.40
2022-09-27T03:27:11.587Z,1.98
2022-09-27T03:29:37.819Z,1.58
2022-09-27T03:32:04.069Z,1.50
2022-09-27T03:34:30.288Z,2.28
2022-09-27T03:36:56.537Z,1.30
2022-09-27T03:39:22.725Z,2.05
2022-09-27T03:41:48.907Z,1.70
2022-09-27T03:44:15.101Z,1.50
2022-09-27T03:46:41.284Z,1.60
2022-09-27T03:49:07.464Z,1.90
2022-09-27T03:51:33.856Z,1.70
2022-09-27T03:54:00.093Z,2.03
2022-09-27T03:56:26.483Z,2.38
2022-09-27T03:58:52.695Z,2.67
2022-09-27T04:01:19.031Z,2.17
2022-09-27T04:03:45.998Z,2.85
2022-09-27T04:06:12.231Z,2.85
2022-09-27T04:08:38.450Z,2.90
2022-09-27T04:11:04.740Z,2.50
2022-09-27T04:13:30.964Z,2.38
2022-09-27T04:15:57.191Z,1.88
2022-09-27T04:18:23.448Z,2.47
2022-09-27T04:20:49.635Z,1.90
2022-09-27T04:23:15.832Z,1.80
2022-09-27T04:25:42.067Z,1.90
2022-09-27T04:28:08.286Z,2.20
2022-09-27T04:30:34.588Z,1.98
2022-09-27T04:33:00.868Z,1.70
2022-09-27T04:35:45.518Z,2.08
2022-09-27T04:38:11.728Z,1.80
2022-09-27T04:40:38.346Z,2.15
2022-09-27T04:43:04.682Z,2.05
2022-09-27T04:45:31.020Z,2.40
2022-09-27T04:47:57.259Z,2.38
2022-09-27T04:50:23.480Z,3.13
2022-09-27T04:52:50.661Z,2.78
2022-09-27T04:55:16.930Z,3.38
2022-09-27T04:57:43.160Z,3.30
2022-09-27T05:00:09.670Z,3.38
2022-09-27T05:02:35.953Z,3.53
2022-09-27T05:05:02.225Z,3.60
2022-09-27T05:07:28.780Z,3.60
2022-09-27T05:09:55.298Z,4.28
2022-09-27T05:12:21.644Z,4.05
2022-09-27T05:14:47.883Z,4.10
2022-09-27T05:17:14.205Z,3.88
2022-09-27T05:19:40.425Z,4.18
2022-09-27T05:22:06.904Z,3.80
2022-09-27T05:24:33.316Z,3.20
2022-09-27T05:27:00.148Z,3.25
2022-09-27T05:29:26.511Z,3.63
2022-09-27T05:31:52.806Z,3.42
2022-09-27T05:34:20.714Z,3.50
2022-09-27T05:36:47.603Z,4.00
2022-09-27T05:39:14.079Z,3.45
2022-09-27T05:41:41.128Z,3.45
2022-09-27T05:44:07.483Z,3.65
2022-09-27T05:46:33.726Z,3.53
2022-09-27T05:49:00.194Z,3.38
2022-09-27T05:51:26.458Z,3.20
2022-09-27T05:53:53.144Z,4.03
2022-09-27T05:56:19.403Z,3.10
2022-09-27T05:58:45.968Z,3.35
2022-09-27T06:01:12.209Z,3.20
2022-09-27T06:03:39.929Z,2.97
2022-09-27T06:06:06.481Z,3.05
2022-09-27T06:08:34.986Z,2.95
2022-09-27T06:11:05.399Z,3.50
2022-09-27T06:13:33.242Z,2.95
2022-09-27T06:16:00.139Z,3.22
2022-09-27T06:18:26.316Z,3.20
2022-09-27T06:20:52.707Z,2.97
2022-09-27T06:23:20.354Z,3.40
2022-09-27T06:25:49.223Z,3.05
2022-09-27T06:28:16.212Z,2.45
2022-09-27T06:30:46.452Z,3.33
2022-09-27T06:33:13.942Z,2.60
2022-09-27T06:35:40.543Z,2.88
2022-09-27T06:38:09.132Z,2.75
2022-09-27T06:40:35.515Z,2.45
2022-09-27T06:43:06.101Z,2.58
2022-09-27T06:45:32.488Z,2.75
2022-09-27T06:48:02.308Z,1.95
2022-09-27T06:50:29.747Z,2.10
2022-09-27T06:52:55.959Z,2.50
2022-09-27T06:55:22.606Z,2.05
2022-09-27T06:58:11.794Z,1.92
2022-09-27T07:00:38.190Z,2.08
2022-09-27T07:03:04.363Z,1.90
2022-09-27T07:05:31.025Z,1.88
2022-09-27T07:07:57.744Z,1.67
2022-09-27T07:10:28.093Z,1.60
2022-09-27T07:12:54.972Z,1.98
2022-09-27T07:15:21.547Z,1.95
2022-09-27T07:17:48.320Z,1.70
2022-09-27T07:20:15.037Z,1.42
2022-09-27T07:22:45.366Z,1.52
2022-09-27T07:25:11.695Z,1.60
2022-09-27T07:27:38.710Z,1.40
2022-09-27T07:30:07.162Z,1.40
2022-09-27T07:32:35.512Z,1.45
2022-09-27T07:35:01.700Z,1.25
2022-09-27T07:37:27.970Z,1.40
2022-09-27T07:39:54.241Z,1.30
2022-09-27T07:42:20.533Z,1.75
2022-09-27T07:44:46.748Z,1.38
2022-09-27T07:47:12.956Z,1.55
2022-09-27T07:49:39.154Z,1.45
2022-09-27T07:52:05.398Z,1.50
2022-09-27T07:54:31.659Z,1.45
2022-09-27T07:56:57.912Z,1.30
2022-09-27T07:59:24.215Z,1.77
2022-09-27T08:01:50.584Z,1.40
2022-09-27T08:04:16.799Z,1.33
2022-09-27T08:06:43.023Z,1.58
2022-09-27T08:09:12.317Z,1.40
2022-09-27T08:11:38.667Z,1.15
2022-09-27T08:14:05.017Z,1.10
2022-09-27T08:16:33.465Z,1.13
2022-09-27T08:18:59.688Z,1.23
2022-09-27T08:21:25.899Z,1.08
2022-09-27T08:23:52.301Z,1.08
2022-09-27T08:26:18.499Z,1.10
2022-09-27T08:28:46.787Z,1.10
2022-09-27T08:31:13.020Z,1.10
2022-09-27T08:33:41.647Z,1.23
2022-09-27T08:36:11.996Z,0.90
2022-09-27T08:38:38.184Z,1.00
2022-09-27T08:41:10.117Z,1.00
2022-09-27T08:43:55.107Z,1.30
2022-09-27T08:46:34.498Z,1.10
2022-09-27T08:49:12.527Z,1.50
2022-09-27T08:51:39.679Z,1.10
2022-09-27T08:54:07.953Z,1.58
2022-09-27T08:56:34.388Z,1.50
2022-09-27T08:59:04.350Z,1.30
2022-09-27T09:01:30.702Z,1.52
2022-09-27T09:03:58.750Z,1.42
2022-09-27T09:06:32.416Z,1.30
2022-09-27T09:09:10.640Z,1.50
2022-09-27T09:12:05.027Z,1.55
2022-09-27T09:14:31.195Z,1.60
2022-09-27T09:17:11.766Z,1.30
2022-09-27T09:19:56.982Z,1.65
2022-09-27T09:22:41.971Z,1.45
2022-09-27T09:25:18.334Z,1.95
2022-09-27T09:27:56.974Z,1.50
2022-09-27T09:30:35.976Z,2.00
2022-09-27T09:33:23.050Z,2.08
2022-09-27T09:35:58.219Z,2.20
2022-09-27T09:38:35.814Z,2.00
2022-09-27T09:41:17.091Z,2.20
2022-09-27T09:43:55.048Z,1.92
2022-09-27T09:46:45.585Z,2.00
2022-09-27T09:49:28.615Z,2.00
2022-09-27T09:51:58.931Z,2.13
2022-09-27T09:54:31.800Z,2.25
2022-09-27T09:57:06.251Z,2.10
2022-09-27T09:59:42.963Z,2.03
2022-09-27T10:02:21.169Z,1.98
2022-09-27T10:04:47.394Z,1.52
2022-09-27T10:07:14.343Z,1.83
2022-09-27T10:09:40.718Z,1.90
2022-09-27T10:12:06.943Z,1.90
2022-09-27T10:14:33.524Z,1.98
2022-09-27T10:17:01.113Z,1.85
2022-09-27T10:19:31.211Z,1.67
2022-09-27T10:22:11.216Z,1.83
2022-09-27T10:25:02.318Z,1.75
2022-09-27T10:27:37.487Z,2.22
2022-09-27T10:30:04.109Z,1.70
2022-09-27T10:32:32.968Z,1.58
2022-09-27T10:35:22.833Z,2.00
2022-09-27T10:37:49.989Z,2.40
2022-09-27T10:40:42.571Z,2.13
2022-09-27T10:43:29.606Z,2.35
2022-09-27T10:46:05.199Z,2.00
2022-09-27T10:48:31.451Z,2.03
2022-09-27T10:50:59.836Z,2.40
2022-09-27T10:53:26.904Z,2.45
2022-09-27T10:55:53.367Z,2.58
2022-09-27T10:58:33.728Z,2.63
2022-09-27T11:01:05.423Z,2.80
2022-09-27T11:03:32.683Z,2.30
2022-09-27T11:05:59.515Z,2.67
2022-09-27T11:08:30.479Z,2.55
2022-09-27T11:11:07.623Z,2.83
2022-09-27T11:13:35.393Z,2.58
2022-09-27T11:16:21.066Z,2.40
2022-09-27T11:18:47.428Z,2.80
2022-09-27T11:21:14.400Z,2.67
2022-09-27T11:23:48.776Z,2.55
2022-09-27T11:26:15.009Z,2.95
2022-09-27T11:28:41.200Z,2.88
2022-09-27T11:31:07.450Z,2.67
2022-09-27T11:33:48.833Z,2.90
2022-09-27T11:36:20.967Z,2.30
2022-09-27T11:38:55.223Z,3.08
2022-09-27T11:41:38.527Z,2.97
2022-09-27T11:44:14.645Z,3.28
2022-09-27T11:46:42.456Z,2.80
2022-09-27T11:49:24.288Z,2.80
2022-09-27T11:52:01.394Z,2.95
2022-09-27T11:54:46.066Z,2.47
2022-09-27T11:57:20.623Z,2.88
2022-09-27T11:59:53.101Z,2.22
2022-09-27T12:02:28.502Z,2.30
2022-09-27T12:04:57.829Z,2.15
2022-09-27T12:07:26.873Z,2.25
2022-09-27T12:09:56.779Z,2.30
2022-09-27T12:12:25.257Z,2.10
2022-09-27T12:15:06.683Z,2.17
2022-09-27T12:17:35.918Z,1.98
2022-09-27T12:20:18.738Z,2.15
2022-09-27T12:22:59.246Z,2.10
2022-09-27T12:25:29.860Z,2.40
2022-09-27T12:28:00.952Z,2.15
2022-09-27T12:30:27.843Z,2.08
2022-09-27T12:33:12.924Z,2.55
2022-09-27T12:35:53.199Z,1.90
2022-09-27T12:38:37.508Z,1.52
2022-09-27T12:41:05.933Z,1.73
2022-09-27T12:43:32.160Z,2.20
2022-09-27T12:46:19.044Z,1.75
2022-09-27T12:49:00.597Z,1.95
2022-09-27T12:51:32.032Z,1.48
2022-09-27T12:53:58.907Z,1.58
2022-09-27T12:56:43.966Z,1.30
2022-09-27T12:59:28.876Z,1.70
2022-09-27T13:02:13.910Z,1.30
2022-09-27T13:04:57.216Z,1.50
2022-09-27T13:07:32.224Z,1.63
2022-09-27T13:10:01.416Z,1.50
2022-09-27T13:12:29.297Z,1.60
2022-09-27T13:15:04.477Z,1.58
2022-09-27T13:17:35.607Z,1.40
2022-09-27T13:20:21.770Z,1.40
2022-09-27T13:22:48.350Z,1.67
2022-09-27T13:25:33.307Z,1.80
2022-09-27T13:27:59.841Z,1.75
2022-09-27T13:30:28.873Z,1.35
2022-09-27T13:33:10.512Z,1.63
2022-09-27T13:35:36.747Z,1.38
2022-09-27T13:38:03.312Z,1.40
2022-09-27T13:40:36.724Z,1.45
2022-09-27T13:43:17.496Z,1.50
2022-09-27T13:45:57.236Z,1.42
2022-09-27T13:48:28.552Z,1.30
2022-09-27T13:51:04.104Z,1.52
2022-09-27T13:53:33.403Z,1.63
2022-09-27T13:55:59.605Z,1.38
2022-09-27T13:58:44.738Z,1.73
2022-09-27T14:01:17.087Z,1.30
2022-09-27T14:03:44.679Z,1.30
2022-09-27T14:06:14.096Z,1.15
2022-09-27T14:08:45.516Z,1.60
2022-09-27T14:11:30.773Z,1.35
2022-09-27T14:13:57.348Z,1.30
2022-09-27T14:16:25.143Z,0.95
2022-09-27T14:18:53.579Z,1.13
2022-09-27T14:21:22.871Z,1.40
2022-09-27T14:23:50.565Z,1.40
2022-09-27T14:26:26.631Z,1.80
2022-09-27T14:28:52.879Z,1.40
2022-09-27T14:31:22.386Z,1.48
2022-09-27T14:33:49.373Z,1.35
2022-09-27T14:36:37.427Z,1.50
2022-09-27T14:39:12.331Z,1.40
2022-09-27T14:41:39.505Z,1.30
2022-09-27T14:44:12.541Z,1.33
2022-09-27T14:46:38.774Z,1.42
2022-09-27T14:49:11.822Z,1.50
2022-09-27T14:51:38.479Z,1.45
2022-09-27T14:54:07.023Z,1.20
2022-09-27T14:56:34.513Z,1.33
2022-09-27T14:59:09.159Z,1.48
2022-09-27T15:01:35.506Z,1.50
2022-09-27T15:04:06.152Z,1.40
2022-09-27T15:06:33.347Z,1.60
2022-09-27T15:08:59.852Z,2.15
2022-09-27T15:11:27.033Z,2.35
2022-09-27T15:13:54.893Z,1.90
2022-09-27T15:16:22.531Z,1.88
2022-09-27T15:18:50.403Z,1.80
2022-09-27T15:21:31.062Z,1.90
2022-09-27T15:23:58.735Z,1.63
2022-09-27T15:26:39.519Z,1.23
2022-09-27T15:29:06.087Z,1.20
2022-09-27T15:31:36.185Z,1.40
2022-09-27T15:34:04.169Z,1.10
2022-09-27T15:36:52.616Z,0.80
2022-09-27T15:39:19.920Z,1.17
2022-09-27T15:42:03.204Z,1.50
2022-09-27T15:44:46.138Z,1.38
2022-09-27T15:47:40.671Z,1.40
2022-09-27T15:50:15.782Z,1.60
2022-09-27T15:53:06.938Z,2.28
2022-09-27T15:55:34.978Z,1.88
2022-09-27T15:58:05.614Z,1.38
2022-09-27T16:00:32.126Z,1.50
2022-09-27T16:02:58.403Z,1.23
2022-09-27T16:05:24.731Z,1.17
2022-09-27T16:07:51.686Z,1.50
2022-09-27T16:10:19.243Z,1.45
2022-09-27T16:12:45.624Z,1.58
2022-09-27T16:15:12.685Z,1.48
2022-09-27T16:17:40.103Z,1.55
2022-09-27T16:20:06.631Z,1.70
2022-09-27T16:22:33.212Z,1.70
2022-09-27T16:24:59.556Z,1.58
2022-09-27T16:27:27.281Z,1.80
2022-09-27T16:29:54.070Z,1.85
2022-09-27T16:32:21.220Z,1.90
2022-09-27T16:34:47.429Z,1.70
2022-09-27T16:37:13.939Z,1.75
2022-09-27T16:39:40.708Z,2.10
2022-09-27T16:42:07.646Z,1.60
2022-09-27T16:44:35.889Z,1.98
2022-09-27T16:47:04.129Z,2.00
2022-09-27T16:49:49.065Z,1.70
2022-09-27T16:52:16.076Z,1.60
2022-09-27T16:54:42.580Z,1.85
2022-09-27T16:57:08.968Z,1.70
2022-09-27T16:59:35.343Z,1.90
2022-09-27T17:02:01.994Z,1.80
2022-09-27T17:04:28.532Z,1.50
2022-09-27T17:06:55.414Z,1.67
2022-09-27T17:09:21.996Z,1.80
2022-09-27T17:11:48.203Z,1.80
2022-09-27T17:14:17.220Z,1.88
2022-09-27T17:16:43.897Z,2.17
2022-09-27T17:19:10.212Z,2.28
2022-09-27T17:21:38.202Z,2.30
2022-09-27T17:24:05.003Z,2.53
2022-09-27T17:26:31.887Z,2.70
2022-09-27T17:29:00.698Z,2.63
2022-09-27T17:31:28.090Z,2.40
2022-09-27T17:33:57.774Z,2.60
2022-09-27T17:36:25.964Z,2.60
2022-09-27T17:38:52.521Z,2.85
2022-09-27T17:41:20.538Z,2.85
2022-09-27T17:43:50.196Z,3.08
2022-09-27T17:46:21.046Z,3.65
2022-09-27T17:49:05.925Z,3.40
2022-09-27T17:51:33.170Z,3.20
2022-09-27T17:53:59.818Z,3.28
2022-09-27T17:56:26.296Z,3.63
2022-09-27T17:58:53.686Z,3.38
2022-09-27T18:01:21.235Z,3.65
2022-09-27T18:03:47.560Z,3.30
2022-09-27T18:06:14.629Z,4.05
2022-09-27T18:08:40.941Z,3.85
2022-09-27T18:11:08.001Z,4.13
2022-09-27T18:13:40.431Z,4.03
2022-09-27T18:16:13.878Z,3.72
2022-09-27T18:18:42.120Z,3.80
2022-09-27T18:21:13.987Z,4.53
2022-09-27T18:23:40.877Z,4.70
2022-09-27T18:26:09.758Z,4.30
2022-09-27T18:28:37.263Z,4.65
2022-09-27T18:31:07.586Z,4.55
2022-09-27T18:33:34.074Z,4.20
2022-09-27T18:36:07.529Z,4.30
2022-09-27T18:38:34.368Z,4.20
2022-09-27T18:41:13.108Z,4.50
2022-09-27T18:43:39.780Z,5.07
2022-09-27T18:46:30.865Z,4.93
2022-09-27T18:48:54.000Z,4.50
2022-09-27T18:51:26.591Z,4.80
2022-09-27T18:53:59.936Z,4.70
2022-09-27T18:56:26.694Z,5.53
2022-09-27T18:58:53.183Z,4.85
2022-09-27T19:01:20.005Z,5.07
2022-09-27T19:03:46.751Z,5.93
2022-09-27T19:06:14.283Z,5.38
2022-09-27T19:08:40.954Z,5.32
2022-09-27T19:11:11.214Z,4.75
2022-09-27T19:13:46.068Z,4.80
2022-09-27T19:16:16.995Z,5.18
2022-09-27T19:18:43.239Z,5.30
2022-09-27T19:21:11.013Z,5.28
2022-09-27T19:23:38.004Z,4.90
2022-09-27T19:26:05.715Z,5.35
2022-09-27T19:28:36.186Z,4.82
2022-09-27T19:31:06.699Z,4.63
2022-09-27T19:33:36.993Z,4.70
2022-09-27T19:36:04.432Z,5.03
2022-09-27T19:38:31.354Z,4.93
2022-09-27T19:40:57.770Z,5.07
2022-09-27T19:43:24.072Z,5.35
2022-09-27T19:45:50.320Z,5.10
2022-09-27T19:48:17.019Z,4.78
2022-09-27T19:50:43.234Z,5.10
2022-09-27T19:53:09.442Z,5.30
2022-09-27T19:55:35.848Z,5.50
2022-09-27T19:58:02.079Z,5.38
2022-09-27T20:00:28.275Z,5.38
2022-09-27T20:02:54.538Z,5.13
2022-09-27T20:05:20.782Z,5.93
2022-09-27T20:07:47.743Z,5.53
2022-09-27T20:10:14.331Z,5.60
2022-09-27T20:12:40.545Z,5.65
2022-09-27T20:15:06.895Z,5.70
2022-09-27T20:17:33.212Z,6.57
2022-09-27T20:19:59.514Z,5.57
2022-09-27T20:22:25.729Z,5.13
2022-09-27T20:24:51.954Z,5.57
2022-09-27T20:27:18.675Z,5.43
2022-09-27T20:29:44.886Z,4.90
2022-09-27T20:32:28.044Z,5.07
2022-09-27T20:34:54.458Z,5.25
2022-09-27T20:37:20.828Z,4.85
2022-09-27T20:39:47.038Z,4.45
2022-09-27T20:42:13.307Z,4.38
2022-09-27T20:44:40.089Z,4.60
2022-09-27T20:47:06.354Z,4.63
2022-09-27T20:49:32.660Z,4.72
2022-09-27T20:51:58.827Z,4.90
2022-09-27T20:54:25.086Z,4.95
2022-09-27T20:56:51.356Z,4.93
2022-09-27T20:59:22.243Z,4.22
2022-09-27T21:01:49.699Z,4.50
2022-09-27T21:04:17.244Z,4.03
2022-09-27T21:06:43.699Z,3.92
2022-09-27T21:09:10.948Z,3.97
2022-09-27T21:11:37.251Z,3.70
2022-09-27T21:14:03.700Z,3.70
2022-09-27T21:16:34.432Z,3.05
2022-09-27T21:19:01.436Z,3.75
2022-09-27T21:21:27.639Z,3.13
2022-09-27T21:23:55.637Z,2.75
2022-09-27T21:26:22.853Z,3.33
2022-09-27T21:28:50.527Z,3.20
2022-09-27T21:31:22.314Z,2.60
2022-09-27T21:33:50.936Z,2.63
2022-09-27T21:36:17.158Z,2.30
2022-09-27T21:38:43.465Z,2.47
2022-09-27T21:41:10.753Z,2.28
2022-09-27T21:43:39.600Z,2.00
2022-09-27T21:46:07.144Z,1.98
2022-09-27T21:48:34.099Z,1.80
2022-09-27T21:51:05.363Z,1.98
2022-09-27T21:53:32.291Z,1.70
2022-09-27T21:55:58.508Z,1.65
2022-09-27T21:58:24.754Z,1.77
2022-09-27T22:00:50.995Z,1.70
2022-09-27T22:03:17.345Z,1.42
2022-09-27T22:05:47.233Z,1.50
2022-09-27T22:08:13.474Z,1.48
2022-09-27T22:10:40.183Z,1.40
2022-09-27T22:13:06.396Z,1.50
2022-09-27T22:15:34.677Z,1.60
2022-09-27T22:18:01.044Z,1.38
2022-09-27T22:20:27.680Z,1.20
2022-09-27T22:22:55.783Z,1.40
2022-09-27T22:25:22.764Z,1.35
2022-09-27T22:27:49.367Z,1.38
2022-09-27T22:30:15.928Z,1.40
2022-09-27T22:32:45.243Z,1.27
2022-09-27T22:35:11.541Z,1.17
2022-09-27T22:37:37.756Z,1.25
2022-09-27T22:40:04.872Z,1.23
2022-09-27T22:42:31.079Z,1.35
2022-09-27T22:44:57.274Z,1.30
2022-09-27T22:47:23.496Z,1.55
2022-09-27T22:49:49.714Z,1.50
2022-09-27T22:52:16.024Z,1.23
2022-09-27T22:54:42.256Z,1.42
2022-09-27T22:57:08.433Z,1.80
2022-09-27T22:59:34.627Z,1.45
2022-09-27T23:02:00.850Z,1.65
2022-09-27T23:04:27.047Z,1.50
2022-09-27T23:06:53.240Z,1.50
2022-09-27T23:09:19.484Z,1.30
2022-09-27T23:11:45.734Z,1.58
2022-09-27T23:14:11.955Z,1.52
2022-09-27T23:16:38.401Z,1.30
2022-09-27T23:19:04.718Z,1.10
2022-09-27T23:21:31.894Z,1.13
2022-09-27T23:23:59.648Z,0.90
2022-09-27T23:26:26.578Z,1.33
2022-09-27T23:28:53.462Z,1.20
2022-09-27T23:31:21.485Z,1.20
2022-09-27T23:33:48.806Z,1.30
2022-09-27T23:36:16.135Z,1.27
2022-09-27T23:38:43.357Z,1.10
2022-09-27T23:41:09.519Z,1.02
2022-09-27T23:43:36.247Z,1.00
2022-09-27T23:46:03.380Z,1.05
2022-09-27T23:48:29.675Z,1.00
2022-09-27T23:50:57.125Z,1.00
2022-09-27T23:53:23.889Z,1.10
2022-09-27T23:55:59.555Z,1.10
2022-09-27T23:58:25.764Z,1.13
